tititudorancea.com
Station Historical Data
Daily Summary for March 7, 2018 Units:  Metric    English   Both
« Previous Day
Next Day »
Daily Weekly Monthly Yearly Custom
  High: Low: Average:
Temperature: -17.8 °C 9.8 °C 20.2 °C
Dew Point: -17.8 °C 7.4 °C 10.2 °C
Humidity: Humidity % 25 % 60 %
Wind Speed: 0 km/h 0 km/h 6.1 km/h
Wind Gust: 0 km/h - -
Wind:- - South
Pressure: 0 hPa 1019.5 hPa -
Precipitation: 0 mm    
Historical Graphs
 
 
Ararat weather Find more about Weather in Ararat, AU


 



 


Tabular Data for March 7, 2018
Time Temperature Dew Point Pressure Wind Wind Speed Wind Gust Humidity Rainfall Rate (Hourly)
-17.8 °C -17.8 °C 0 hPa Calm     Humidity % 0 mm
00:04 14.2 °C 11.9 °C 1022.9 hPa South 7.2 km/h 11.1 km/h 86 % 0 mm
00:09 14.2 °C 11.8 °C 1022.9 hPa South 8.5 km/h 18.5 km/h 86 % 0 mm
00:14 14.1 °C 12 °C 1022.9 hPa North 7.2 km/h 13 km/h 87 % 0 mm
00:19 14.1 °C 12 °C 1022.9 hPa North 7.1 km/h 9.7 km/h 87 % 0 mm
00:24 14.1 °C 11.9 °C 1022.9 hPa South 7.9 km/h 13 km/h 87 % 0 mm
00:29 14 °C 11.9 °C 1022.9 hPa South 9.3 km/h 14.8 km/h 87 % 0 mm
00:34 14 °C 12.1 °C 1022.9 hPa South 7.1 km/h 11.1 km/h 88 % 0 mm
00:39 13.9 °C 11.9 °C 1022.9 hPa South 5.8 km/h 11.1 km/h 88 % 0 mm
00:44 13.9 °C 11.9 °C 1022.9 hPa South 7.9 km/h 13 km/h 88 % 0 mm
00:49 13.8 °C 11.8 °C 1022.9 hPa South 6.9 km/h 14.8 km/h 88 % 0 mm
00:54 13.8 °C 12 °C 1022.9 hPa North 9.7 km/h 14.8 km/h 89 % 0 mm
00:59 13.7 °C 11.9 °C 1022.9 hPa South 11.6 km/h 14.8 km/h 89 % 0 mm
01:04 13.7 °C 11.9 °C 1022.9 hPa North 11.3 km/h 14.8 km/h 89 % 0 mm
01:09 13.7 °C 11.9 °C 1022.9 hPa SSW 7.2 km/h 13 km/h 89 % 0 mm
01:14 13.7 °C 11.9 °C 1022.9 hPa SSW 7.7 km/h 9.7 km/h 89 % 0 mm
01:19 13.6 °C 11.8 °C 1022.9 hPa SSW 10.1 km/h 14.8 km/h 89 % 0 mm
01:24 13.6 °C 11.9 °C 1022.9 hPa North 11.6 km/h 14.8 km/h 90 % 0 mm
01:29 13.6 °C 11.9 °C 1022.9 hPa SSW 7.6 km/h 11.3 km/h 90 % 0 mm
01:34 13.6 °C 11.9 °C 1022.9 hPa SSW 9.8 km/h 13 km/h 90 % 0 mm
01:39 13.6 °C 11.9 °C 1022.9 hPa South 8.7 km/h 12.9 km/h 90 % 0 mm
01:44 13.5 °C 11.9 °C 1022.9 hPa North 12.6 km/h 13 km/h 90 % 0 mm
01:49 13.4 °C 11.8 °C 1022.6 hPa SSW 10.9 km/h 14.8 km/h 90 % 0 mm
01:54 13.4 °C 11.8 °C 1022.6 hPa SSW 6.4 km/h 11.1 km/h 90 % 0 mm
01:59 13.3 °C 11.7 °C 1022.6 hPa South 7.9 km/h 12.9 km/h 90 % 0 mm
02:04 13.3 °C 11.8 °C 1022.6 hPa South 7.4 km/h 9.7 km/h 91 % 0 mm
02:09 13.2 °C 11.7 °C 1022.6 hPa South 9 km/h 13 km/h 91 % 0 mm
02:14 13 °C 11.6 °C 1022.6 hPa SSW 9.2 km/h 13 km/h 91 % 0 mm
02:19 13 °C 11.6 °C 1022.6 hPa North 8 km/h 9.3 km/h 91 % 0 mm
02:24 12.9 °C 11.4 °C 1022.6 hPa North 8.5 km/h 11.1 km/h 91 % 0 mm
02:29 12.9 °C 11.4 °C 1022.6 hPa South 7.7 km/h 8 km/h 91 % 0 mm
02:34 12.8 °C 11.6 °C 1022.6 hPa South 11.3 km/h 14.8 km/h 92 % 0 mm
02:39 12.9 °C 11.6 °C 1022.6 hPa North 8.4 km/h 13 km/h 92 % 0 mm
02:44 12.8 °C 11.6 °C 1022.6 hPa South 6.4 km/h 11.1 km/h 92 % 0 mm
02:49 12.8 °C 11.5 °C 1022.6 hPa SSW 8.2 km/h 9.3 km/h 92 % 0 mm
02:54 12.7 °C 11.4 °C 1022.6 hPa SSW 9.3 km/h 11.3 km/h 92 % 0 mm
02:59 12.7 °C 11.4 °C 1022.2 hPa North 7.4 km/h 9.7 km/h 92 % 0 mm
03:04 12.6 °C 11.3 °C 1022.2 hPa SSW 10.6 km/h 14.8 km/h 92 % 0 mm
03:09 12.6 °C 11.3 °C 1022.2 hPa North 5 km/h 9.3 km/h 92 % 0 mm
03:14 12.5 °C 11.2 °C 1022.2 hPa North 5.6 km/h 11.1 km/h 92 % 0 mm
03:19 12.4 °C 11.3 °C 1022.2 hPa SSW 6.6 km/h 9.3 km/h 93 % 0 mm
03:24 12.4 °C 11.3 °C 1022.2 hPa SSW 5.5 km/h 9.3 km/h 93 % 0 mm
03:29 12.3 °C 11.2 °C 1022.2 hPa North 6.1 km/h 7.4 km/h 93 % 0 mm
03:34 12.4 °C 11.3 °C 1022.2 hPa SSW 8.5 km/h 11.1 km/h 93 % 0 mm
03:39 12.3 °C 11.2 °C 1022.2 hPa SSW 8.5 km/h 11.1 km/h 93 % 0 mm
03:44 12.4 °C 11.3 °C 1022.2 hPa North 12.9 km/h 14.8 km/h 93 % 0 mm
03:49 12.3 °C 11.2 °C 1022.2 hPa SSW 6.1 km/h 11.1 km/h 93 % 0 mm
03:54 12.3 °C 11.2 °C 1022.2 hPa North 5 km/h 11.1 km/h 93 % 0 mm
03:59 12.2 °C 11.1 °C 1022.2 hPa North 6.6 km/h 9.3 km/h 93 % 0 mm
04:04 12.2 °C 11.1 °C 1021.9 hPa North 5.8 km/h 9.3 km/h 93 % 0 mm
04:09 12.1 °C 11 °C 1021.9 hPa SSW 7.1 km/h 11.1 km/h 93 % 0 mm
04:14 12.1 °C 11 °C 1021.9 hPa SSW 7.6 km/h 9.3 km/h 93 % 0 mm
04:19 12.1 °C 11.2 °C 1021.9 hPa SSW 6 km/h 13 km/h 94 % 0 mm
04:24 12.1 °C 11.1 °C 1021.9 hPa SSW 6.9 km/h 9.3 km/h 94 % 0 mm
04:29 11.9 °C 11 °C 1021.9 hPa North 5.5 km/h 8 km/h 94 % 0 mm
04:34 11.9 °C 11 °C 1022.2 hPa North 7.2 km/h 9.3 km/h 94 % 0 mm
04:39 11.9 °C 10.9 °C 1022.2 hPa North 6.1 km/h 7.4 km/h 94 % 0 mm
04:44 11.8 °C 10.8 °C 1022.2 hPa North 5.8 km/h 9.3 km/h 94 % 0 mm
04:49 11.8 °C 10.9 °C 1021.9 hPa SSW 9.2 km/h 14.8 km/h 94 % 0 mm
04:54 11.8 °C 10.9 °C 1022.2 hPa North 3.1 km/h 7.4 km/h 94 % 0 mm
04:59 11.8 °C 10.8 °C 1023.2 hPa South 5 km/h 5 km/h 94 % 0 mm
05:04 11.8 °C 10.9 °C 1023.2 hPa ENE 2.4 km/h 6.4 km/h 94 % 0 mm
05:09 11.9 °C 10.9 °C 1022.9 hPa ENE 3.1 km/h 6.4 km/h 94 % 0 mm
05:14 11.9 °C 10.9 °C 1022.6 hPa North 10.3 km/h 14.8 km/h 94 % 0 mm
05:19 11.8 °C 10.8 °C 1022.6 hPa SSE 7.6 km/h 11.3 km/h 94 % 0 mm
05:24 11.7 °C 10.8 °C 1022.6 hPa SSE 6 km/h 7.4 km/h 94 % 0 mm
05:29 11.7 °C 10.7 °C 1022.9 hPa North 0.6 km/h 5.6 km/h 94 % 0 mm
05:34 11.6 °C 10.7 °C 1022.9 hPa Calm   1.9 km/h 94 % 0 mm
05:39 11.6 °C 10.6 °C 1022.9 hPa Calm     94 % 0 mm
05:44 11.4 °C 10.5 °C 1022.9 hPa Calm     94 % 0 mm
05:49 11.3 °C 10.4 °C 1022.9 hPa Calm     94 % 0 mm
05:54 11.2 °C 10.2 °C 1022.9 hPa Calm     94 % 0 mm
05:59 11.1 °C 10.1 °C 1022.9 hPa Calm     94 % 0 mm
06:04 10.9 °C 10 °C 1022.9 hPa Calm     94 % 0 mm
06:09 10.9 °C 9.9 °C 1022.9 hPa Calm     94 % 0 mm
06:14 10.8 °C 9.8 °C 1023.2 hPa Calm     94 % 0 mm
06:20 10.7 °C 9.9 °C 1023.2 hPa Calm     95 % 0 mm
06:25 10.6 °C 9.6 °C 1023.2 hPa Calm     94 % 0 mm
06:30 10.4 °C 9.4 °C 1023.2 hPa SSE 1.1 km/h 1.6 km/h 94 % 0 mm
06:35 10.4 °C 9.4 °C 1023.2 hPa Calm   1.9 km/h 94 % 0 mm
06:40 10.3 °C 9.4 °C 1023.2 hPa Calm     94 % 0 mm
06:45 10.2 °C 9.3 °C 1023.2 hPa Calm     94 % 0 mm
06:50 10.2 °C 9.2 °C 1023.2 hPa SSE 1.4 km/h 1.6 km/h 94 % 0 mm
06:55 10.1 °C 9.2 °C 1023.2 hPa SSE 2.6 km/h 3.7 km/h 94 % 0 mm
07:00 10.1 °C 9.3 °C 1023.2 hPa Calm     95 % 0 mm
07:05 10.1 °C 9.3 °C 1023.6 hPa Calm     95 % 0 mm
07:10 10.1 °C 9.3 °C 1023.6 hPa North 0.3 km/h 1.9 km/h 95 % 0 mm
07:15 10.1 °C 9.3 °C 1023.6 hPa Calm     95 % 0 mm
07:20 10.1 °C 9.3 °C 1023.6 hPa Calm     95 % 0 mm
07:25 10 °C 9.2 °C 1023.9 hPa Calm     95 % 0 mm
07:30 9.9 °C 9.2 °C 1023.9 hPa Calm     95 % 0 mm
07:35 9.9 °C 9.1 °C 1023.9 hPa Calm     95 % 0 mm
07:40 9.8 °C 9.1 °C 1023.9 hPa Calm     95 % 0 mm
07:45 9.8 °C 9.1 °C 1023.9 hPa Calm     95 % 0 mm
07:50 9.9 °C 9.2 °C 1023.9 hPa Calm     95 % 0 mm
07:55 10.1 °C 9.5 °C 1023.9 hPa Calm     96 % 0 mm
08:00 10.3 °C 9.7 °C 1023.9 hPa SSE 3.2 km/h 3.7 km/h 96 % 0 mm
08:05 10.6 °C 9.9 °C 1024.3 hPa SSE 1.4 km/h 3.7 km/h 96 % 0 mm
08:10 10.8 °C 10.2 °C 1024.3 hPa Calm     96 % 0 mm
08:15 11.1 °C 10.5 °C 1023.9 hPa Calm     96 % 0 mm
08:20 11.7 °C 11.3 °C 1024.3 hPa Calm     97 % 0 mm
08:25 12.2 °C 11.6 °C 1024.3 hPa Calm     96 % 0 mm
08:30 12.4 °C 11.8 °C 1024.3 hPa SSE 3.5 km/h 5.6 km/h 96 % 0 mm
08:35 12.6 °C 12 °C 1024.3 hPa North 4.2 km/h 5.6 km/h 96 % 0 mm
08:40 12.9 °C 12.3 °C 1024.3 hPa SSE 3.9 km/h 6.4 km/h 96 % 0 mm
08:41 12.9 °C 12.3 °C 1024.3 hPa SSE 4.3 km/h 5.6 km/h 96 % 0 mm
08:46 13.3 °C 12.7 °C 1024.3 hPa SSE 4.2 km/h 8 km/h 96 % 0 mm
08:47 13.4 °C 12.8 °C 1024.3 hPa SSE 4.8 km/h 7.4 km/h 96 % 0 mm
08:52 13.9 °C 13.1 °C 1024.3 hPa East 5.1 km/h 7.4 km/h 95 % 0 mm
08:57 14.6 °C 13.3 °C 1024.3 hPa ENE 6.8 km/h 9.3 km/h 92 % 0 mm
09:02 15.4 °C 13.1 °C 1024.3 hPa NNE 6 km/h 14.8 km/h 86 % 0 mm
09:07 16.2 °C 12.9 °C 1024.3 hPa NNE 9.7 km/h 13 km/h 81 % 0 mm
09:12 16.9 °C 12.5 °C 1024.3 hPa North 10.6 km/h 16.7 km/h 75 % 0 mm
09:14 17.2 °C 12.3 °C 1024.3 hPa North 7.9 km/h 12.9 km/h 73 % 0 mm
09:19 17.7 °C 12.2 °C 1024.3 hPa North 6.8 km/h 11.1 km/h 70 % 0 mm
09:24 18.2 °C 11.8 °C 1024.6 hPa NNE 8.7 km/h 13 km/h 66 % 0 mm
09:28 18.5 °C 11.8 °C 1024.6 hPa NNE 6.1 km/h 11.3 km/h 65 % 0 mm
09:33 18.9 °C 11.4 °C 1024.6 hPa North 9.8 km/h 14.8 km/h 62 % 0 mm
09:38 19.2 °C 11.3 °C 1024.6 hPa NNE 7.1 km/h 11.1 km/h 60 % 0 mm
09:43 19.6 °C 11.4 °C 1024.6 hPa NE 4.3 km/h 11.3 km/h 59 % 0 mm
09:48 19.9 °C 11.2 °C 1024.6 hPa NNE 10.8 km/h 17.7 km/h 57 % 0 mm
09:53 20.2 °C 11.2 °C 1024.3 hPa NNE 10.5 km/h 16.1 km/h 56 % 0 mm
09:58 20.7 °C 11 °C 1024.6 hPa North 6.8 km/h 11.1 km/h 54 % 0 mm
10:03 21 °C 10.8 °C 1024.3 hPa NNE 12.2 km/h 14.8 km/h 52 % 0 mm
10:08 21.2 °C 10.7 °C 1024.3 hPa NNE 10.1 km/h 16.7 km/h 51 % 0 mm
10:13 21.4 °C 10.6 °C 1024.3 hPa NNE 11.7 km/h 14.8 km/h 50 % 0 mm
10:18 21.6 °C 10.4 °C 1024.6 hPa NNE 14.3 km/h 16.7 km/h 49 % 0 mm
10:23 21.8 °C 10.6 °C 1024.6 hPa NNE 14.3 km/h 18.5 km/h 49 % 0 mm
10:28 21.8 °C 10.3 °C 1024.6 hPa NNE 15.8 km/h 20.4 km/h 48 % 0 mm
10:33 22 °C 10.5 °C 1024.3 hPa North 6.6 km/h 16.7 km/h 48 % 0 mm
10:38 22.5 °C 10.6 °C 1024.3 hPa NW 8.4 km/h 20.4 km/h 47 % 0 mm
10:43 22.6 °C 10.4 °C 1024.3 hPa North 13 km/h 18.5 km/h 46 % 0 mm
10:48 22.6 °C 10.4 °C 1024.3 hPa North 13.8 km/h 18.5 km/h 46 % 0 mm
10:53 22.7 °C 10.5 °C 1024.3 hPa NNE 9.2 km/h 14.5 km/h 46 % 0 mm
10:58 22.8 °C 10.6 °C 1024.3 hPa North 8.9 km/h 17.7 km/h 46 % 0 mm
11:03 23 °C 10.4 °C 1024.3 hPa North 11.7 km/h 20.9 km/h 45 % 0 mm
11:08 23.3 °C 10.7 °C 1024.3 hPa North 11.7 km/h 18.5 km/h 45 % 0 mm
11:13 23.4 °C 10.4 °C 1024.3 hPa NNW 11.3 km/h 13 km/h 44 % 0 mm
11:18 23.4 °C 10.4 °C 1024.3 hPa North 8.7 km/h 14.8 km/h 44 % 0 mm
11:23 23.7 °C 10.3 °C 1024.3 hPa North 12.7 km/h 20.4 km/h 43 % 0 mm
11:28 24 °C 10.7 °C 1024.3 hPa NNW 10 km/h 11.1 km/h 43 % 0 mm
11:33 24 °C 10.7 °C 1024.3 hPa NNW 11.3 km/h 14.5 km/h 43 % 0 mm
11:38 24.1 °C 10.7 °C 1024.3 hPa North 5 km/h 7.4 km/h 43 % 0 mm
11:43 24.4 °C 10.7 °C 1024.3 hPa North 10 km/h 22.2 km/h 42 % 0 mm
11:48 24.4 °C 10.7 °C 1024.3 hPa North 10.6 km/h 16.7 km/h 42 % 0 mm
11:53 24.3 °C 10.6 °C 1023.9 hPa North 8.4 km/h 14.8 km/h 42 % 0 mm
11:58 24.4 °C 10.3 °C 1023.9 hPa NNW 11.7 km/h 18.5 km/h 41 % 0 mm
12:03 24.5 °C 10.7 °C 1023.9 hPa NNW 7.1 km/h 9.3 km/h 42 % 0 mm
12:08 24.8 °C 10.3 °C 1023.9 hPa North 11.3 km/h 18.5 km/h 40 % 0 mm
12:13 25 °C 10.4 °C 1023.9 hPa North 6.3 km/h 13 km/h 40 % 0 mm
12:18 25.3 °C 10.8 °C 1023.9 hPa NNW 7.9 km/h 13 km/h 40 % 0 mm
12:23 25.4 °C 10.4 °C 1023.9 hPa North 7.4 km/h 13 km/h 39 % 0 mm
12:28 25.6 °C 10.6 °C 1023.6 hPa North 5.3 km/h 11.1 km/h 39 % 0 mm
12:33 26 °C 10.6 °C 1023.6 hPa North 10.9 km/h 14.8 km/h 38 % 0 mm
12:39 26 °C 10.6 °C 1023.6 hPa North 8.5 km/h 11.3 km/h 38 % 0 mm
12:43 26.1 °C 10.3 °C 1023.2 hPa NNE 5 km/h 9.3 km/h 37 % 0 mm
12:48 26.3 °C 10 °C 1023.2 hPa NNW 8.2 km/h 14.8 km/h 36 % 0 mm
12:53 26.4 °C 10.1 °C 1023.2 hPa North 9.3 km/h 16.7 km/h 36 % 0 mm
12:59 26.4 °C 10.1 °C 1023.2 hPa North 6.8 km/h 7.4 km/h 36 % 0 mm
13:03 26.7 °C 10 °C 1023.2 hPa North 11.7 km/h 14.8 km/h 35 % 0 mm
13:09 26.7 °C 10 °C 1023.2 hPa NNW 15.1 km/h 18.5 km/h 35 % 0 mm
13:13 26.3 °C 10.1 °C 1022.9 hPa North 8.2 km/h 11.1 km/h 36 % 0 mm
13:18 26.7 °C 9.9 °C 1022.9 hPa NW 10.5 km/h 13 km/h 35 % 0 mm
13:24 26.9 °C 10.1 °C 1022.9 hPa North 10.8 km/h 14.5 km/h 35 % 0 mm
13:28 26.9 °C 9.7 °C 1022.9 hPa North 8 km/h 13 km/h 34 % 0 mm
13:34 27.3 °C 10.1 °C 1022.6 hPa NW 8.9 km/h 13 km/h 34 % 0 mm
13:39 27.2 °C 9.6 °C 1022.6 hPa North 13.2 km/h 13.2 km/h 33 % 0 mm
13:44 27 °C 9.8 °C 1022.6 hPa WNW 9 km/h 9 km/h 34 % 0 mm
13:49 27.1 °C 9.8 °C 1022.6 hPa WNW 4 km/h 9.3 km/h 34 % 0 mm
13:54 27.1 °C 9.9 °C 1022.6 hPa NW 7.1 km/h 13 km/h 34 % 0 mm
13:59 27.4 °C 9.7 °C 1022.6 hPa NW 4.3 km/h 5.6 km/h 33 % 0 mm
14:04 27.8 °C 10.1 °C 1022.2 hPa NNW 6.4 km/h 11.1 km/h 33 % 0 mm
14:09 28 °C 9.8 °C 1022.2 hPa North 0.3 km/h 1.9 km/h 32 % 0 mm
14:14 27.9 °C 9.7 °C 1022.2 hPa North 4 km/h 5.6 km/h 32 % 0 mm
14:19 28 °C 9.3 °C 1022.2 hPa North 3.5 km/h 7.4 km/h 31 % 0 mm
14:24 27.8 °C 9.1 °C 1022.2 hPa North 2.9 km/h 5.6 km/h 31 % 0 mm
14:29 28.4 °C 9.6 °C 1022.2 hPa NNE 5 km/h 5.6 km/h 31 % 0 mm
14:34 28.5 °C 9.7 °C 1021.9 hPa NE 0.8 km/h 3.7 km/h 31 % 0 mm
14:39 29 °C 9.7 °C 1021.9 hPa NNE 5.5 km/h 7.4 km/h 30 % 0 mm
14:44 28.3 °C 9.6 °C 1021.6 hPa SW 8.2 km/h 11.1 km/h 31 % 0 mm
14:49 28.3 °C 9.6 °C 1021.6 hPa SW 5.3 km/h 9.3 km/h 31 % 0 mm
14:54 28.6 °C 8.8 °C 1021.6 hPa SW 3.7 km/h 5.6 km/h 29 % 0 mm
14:59 28.9 °C 9.1 °C 1021.6 hPa East 5.3 km/h 9.3 km/h 29 % 0 mm
15:04 28.9 °C 9.1 °C 1021.6 hPa East 1.1 km/h 1.9 km/h 29 % 0 mm
15:09 29.5 °C 9.1 °C 1021.2 hPa East 0.6 km/h 3.7 km/h 28 % 0 mm
15:10 29.7 °C 9.7 °C 1021.2 hPa East 0.5 km/h 1.9 km/h 29 % 0 mm
15:15 30.1 °C 9.6 °C 1021.2 hPa East 2.9 km/h 7.4 km/h 28 % 0 mm
15:20 30.2 °C 9.7 °C 1021.2 hPa East 1.6 km/h 6.4 km/h 28 % 0 mm
15:25 30.1 °C 9.1 °C 1021.2 hPa East 2.1 km/h 5.6 km/h 27 % 0 mm
15:30 30.1 °C 8.4 °C 1021.2 hPa East 7.1 km/h 9.3 km/h 26 % 0 mm
15:35 30 °C 8.9 °C 1021.2 hPa ESE 4 km/h 9.3 km/h 27 % 0 mm
15:40 29.9 °C 8.9 °C 1020.9 hPa ESE 0.5 km/h 7.4 km/h 27 % 0 mm
15:45 29.7 °C 8.7 °C 1020.9 hPa SE 7.9 km/h 11.1 km/h 27 % 0 mm
15:50 29.3 °C 8.3 °C 1020.9 hPa SE 0.2 km/h 1.9 km/h 27 % 0 mm
15:55 29.9 °C 8.9 °C 1020.5 hPa SE 8.7 km/h 13 km/h 27 % 0 mm
16:00 29.8 °C 8.8 °C 1020.5 hPa SE 3.2 km/h 7.4 km/h 27 % 0 mm
16:02 29.8 °C 8.3 °C 1020.5 hPa SE 6.4 km/h 9.3 km/h 26 % 0 mm
16:07 29.7 °C 8.2 °C 1020.5 hPa SE 3.1 km/h 8 km/h 26 % 0 mm
16:12 29.7 °C 8.2 °C 1020.5 hPa SE 0.3 km/h 3.2 km/h 26 % 0 mm
16:17 30.3 °C 8.6 °C 1020.5 hPa Calm   1.9 km/h 26 % 0 mm
16:22 30.2 °C 8 °C 1020.5 hPa South 4.3 km/h 9.3 km/h 25 % 0 mm
16:27 29.6 °C 8 °C 1020.2 hPa South 7.6 km/h 11.3 km/h 26 % 0 mm
16:32 29.4 °C 8.4 °C 1020.5 hPa West 12.7 km/h 14.8 km/h 27 % 0 mm
16:37 29.1 °C 8.7 °C 1020.2 hPa WNW 6.8 km/h 9.3 km/h 28 % 0 mm
16:42 29.2 °C 8.8 °C 1020.2 hPa SW 5.1 km/h 13 km/h 28 % 0 mm
16:47 29.2 °C 8.2 °C 1020.2 hPa SSW 9.5 km/h 13 km/h 27 % 0 mm
16:52 29.2 °C 8.3 °C 1020.2 hPa SSW 5.6 km/h 5.6 km/h 27 % 0 mm
16:57 29.7 °C 8.1 °C 1020.2 hPa SSW 7.4 km/h 9.3 km/h 26 % 0 mm
17:02 29.7 °C 8.2 °C 1020.2 hPa SSW 4.5 km/h 9.3 km/h 26 % 0 mm
17:07 29.7 °C 8.2 °C 1019.9 hPa Calm   1.9 km/h 26 % 0 mm
17:12 29.9 °C 8.3 °C 1019.9 hPa NE 8 km/h 11.1 km/h 26 % 0 mm
17:17 29.9 °C 8.3 °C 1019.9 hPa NE 5.3 km/h 14.8 km/h 26 % 0 mm
17:22 29.7 °C 8.2 °C 1019.9 hPa NE 3.5 km/h 7.4 km/h 26 % 0 mm
17:27 29.9 °C 8.3 °C 1019.9 hPa NE 3.9 km/h 5.6 km/h 26 % 0 mm
17:32 29.9 °C 8.3 °C 1019.9 hPa NE 3.4 km/h 5.6 km/h 26 % 0 mm
17:37 29.8 °C 8.3 °C 1019.9 hPa SSE 8.5 km/h 9.3 km/h 26 % 0 mm
17:42 29.8 °C 7.6 °C 1019.9 hPa SSE 0.5 km/h 1.6 km/h 25 % 0 mm
17:47 29.8 °C 7.7 °C 1019.9 hPa SSE 8.2 km/h 11.1 km/h 25 % 0 mm
17:52 29.8 °C 7.6 °C 1019.9 hPa ESE 9.2 km/h 14.8 km/h 25 % 0 mm
17:57 29.6 °C 7.4 °C 1019.9 hPa ESE 8.5 km/h 11.1 km/h 25 % 0 mm
18:02 29.6 °C 8 °C 1019.5 hPa ESE 3.4 km/h 8 km/h 26 % 0 mm
18:07 29.7 °C 7.6 °C 1019.9 hPa ESE 3.5 km/h 5.6 km/h 25 % 0 mm
18:12 29.7 °C 8.1 °C 1019.5 hPa ESE 0.5 km/h 3.7 km/h 26 % 0 mm
18:17 29.9 °C 7.7 °C 1019.9 hPa SE 10.5 km/h 11.1 km/h 25 % 0 mm
18:22 29.8 °C 8.3 °C 1019.9 hPa SE 3.5 km/h 11.3 km/h 26 % 0 mm
18:27 29.8 °C 8.2 °C 1019.9 hPa SE 9.2 km/h 11.1 km/h 26 % 0 mm
18:32 29.6 °C 8 °C 1019.5 hPa SE 4.2 km/h 9.3 km/h 26 % 0 mm
18:37 29.4 °C 7.9 °C 1019.9 hPa SE 5.8 km/h 11.1 km/h 26 % 0 mm
18:42 29.4 °C 7.9 °C 1019.9 hPa SE 3.5 km/h 6.4 km/h 26 % 0 mm
18:47 29.4 °C 7.9 °C 1019.9 hPa SE 0.5 km/h 3.7 km/h 26 % 0 mm
18:52 29.4 °C 7.9 °C 1019.9 hPa SE 8.5 km/h 11.1 km/h 26 % 0 mm
18:57 29.3 °C 7.8 °C 1019.9 hPa SE 0.8 km/h 3.2 km/h 26 % 0 mm
19:02 29.2 °C 7.7 °C 1019.9 hPa SE 4.7 km/h 7.4 km/h 26 % 0 mm
19:07 29.1 °C 7.7 °C 1019.9 hPa SE 8.5 km/h 11.1 km/h 26 % 0 mm
19:12 28.9 °C 8 °C 1019.9 hPa SE 5.6 km/h 7.4 km/h 27 % 0 mm
19:17 28.7 °C 7.9 °C 1019.9 hPa SE 9.7 km/h 11.1 km/h 27 % 0 mm
19:22 28.6 °C 7.8 °C 1019.9 hPa SE 7.6 km/h 11.1 km/h 27 % 0 mm
19:27 28.4 °C 7.6 °C 1019.9 hPa SE 5.3 km/h 7.4 km/h 27 % 0 mm
19:32 28.3 °C 8 °C 1019.9 hPa SE 2.3 km/h 3.7 km/h 28 % 0 mm
19:37 28.1 °C 7.9 °C 1019.9 hPa SE 1 km/h 1.9 km/h 28 % 0 mm
19:42 27.9 °C 7.7 °C 1019.9 hPa SE 0.3 km/h 3.7 km/h 28 % 0 mm
19:47 27.7 °C 8.1 °C 1019.9 hPa SE 0.6 km/h 3.7 km/h 29 % 0 mm
19:53 27.4 °C 8.3 °C 1019.9 hPa SE 0.2 km/h 1.9 km/h 30 % 0 mm
19:58 27.1 °C 8.1 °C 1019.9 hPa SE 1 km/h 1.9 km/h 30 % 0 mm
20:03 26.7 °C 8.6 °C 1019.9 hPa SE 1 km/h 1.9 km/h 32 % 0 mm
20:08 26.2 °C 8.2 °C 1020.2 hPa SE 3.2 km/h 5.6 km/h 32 % 0 mm
20:13 25.7 °C 8.2 °C 1020.2 hPa SE 3.9 km/h 6.4 km/h 33 % 0 mm
20:18 25.3 °C 7.9 °C 1020.2 hPa SE 2.3 km/h 3.7 km/h 33 % 0 mm
20:23 25 °C 8.1 °C 1020.2 hPa SE 1.4 km/h 3.7 km/h 34 % 0 mm
20:28 24.6 °C 8.1 °C 1020.2 hPa SE 3.1 km/h 5.6 km/h 35 % 0 mm
20:33 24.3 °C 8.3 °C 1020.5 hPa SE 6.8 km/h 8 km/h 36 % 0 mm
20:38 24.1 °C 8.9 °C 1020.5 hPa South 9 km/h 14.5 km/h 38 % 0 mm
20:43 24.3 °C 9.4 °C 1020.5 hPa South 8 km/h 14.5 km/h 39 % 0 mm
20:48 24.3 °C 10.2 °C 1020.5 hPa SSW 11.3 km/h 20.4 km/h 41 % 0 mm
20:53 24.1 °C 10.3 °C 1020.9 hPa SSW 15 km/h 20.4 km/h 42 % 0 mm
20:58 23.9 °C 10.2 °C 1020.9 hPa SSW 10.9 km/h 18.5 km/h 42 % 0 mm
21:03 23.8 °C 10.4 °C 1020.9 hPa SSW 14.5 km/h 22.2 km/h 43 % 0 mm
21:08 23.7 °C 10.3 °C 1020.9 hPa SSW 12.6 km/h 22.2 km/h 43 % 0 mm
21:13 23.5 °C 10.6 °C 1020.9 hPa North 15.3 km/h 18.5 km/h 44 % 0 mm
21:18 23.4 °C 10.5 °C 1020.9 hPa South 9.3 km/h 14.8 km/h 44 % 0 mm
21:23 23.3 °C 10.7 °C 1021.2 hPa South 10.5 km/h 16.7 km/h 45 % 0 mm
21:28 23.2 °C 10.6 °C 1021.2 hPa SSW 15.9 km/h 24.1 km/h 45 % 0 mm
21:33 23 °C 10.4 °C 1021.2 hPa South 13.2 km/h 18.5 km/h 45 % 0 mm
21:38 22.8 °C 10.9 °C 1021.2 hPa South 10 km/h 18.5 km/h 47 % 0 mm
21:43 22.6 °C 11 °C 1021.2 hPa South 8.2 km/h 11.1 km/h 48 % 0 mm
21:48 22.3 °C 11.1 °C 1021.2 hPa South 8.4 km/h 11.1 km/h 49 % 0 mm
21:53 22.1 °C 11.5 °C 1021.2 hPa South 11.9 km/h 18.5 km/h 51 % 0 mm
21:58 21.9 °C 11.6 °C 1021.2 hPa South 0.8 km/h 8 km/h 52 % 0 mm
22:03 21.7 °C 11.7 °C 1021.6 hPa South 6.3 km/h 9.7 km/h 53 % 0 mm
22:08 21.6 °C 11.9 °C 1021.6 hPa South 8.7 km/h 11.1 km/h 54 % 0 mm
22:13 21.3 °C 11.9 °C 1021.6 hPa South 10.3 km/h 14.8 km/h 55 % 0 mm
22:18 21.1 °C 12 °C 1021.6 hPa South 10.6 km/h 18.5 km/h 56 % 0 mm
22:23 20.9 °C 12.1 °C 1021.6 hPa SSW 7.9 km/h 13 km/h 57 % 0 mm
22:28 20.7 °C 12.2 °C 1021.6 hPa South 3.4 km/h 7.4 km/h 58 % 0 mm
22:33 20.6 °C 12 °C 1021.9 hPa South 12.1 km/h 16.7 km/h 58 % 0 mm
22:38 20.4 °C 12.1 °C 1021.6 hPa SSE 9 km/h 13 km/h 59 % 0 mm
22:43 20.2 °C 11.9 °C 1021.6 hPa SE 10.9 km/h 16.7 km/h 59 % 0 mm
22:48 20.1 °C 12.1 °C 1021.9 hPa SE 2.1 km/h 9.3 km/h 60 % 0 mm
22:53 19.8 °C 11.8 °C 1021.6 hPa SSE 10 km/h 13 km/h 60 % 0 mm
22:58 19.7 °C 11.9 °C 1021.9 hPa SSE 3.7 km/h 7.4 km/h 61 % 0 mm
23:03 19.5 °C 12 °C 1021.9 hPa SSE 4.7 km/h 11.1 km/h 62 % 0 mm
23:08 19.3 °C 11.8 °C 1021.9 hPa North 3.2 km/h 7.4 km/h 62 % 0 mm
23:13 19.1 °C 11.8 °C 1021.9 hPa SSE 8.9 km/h 11.3 km/h 63 % 0 mm
23:18 18.8 °C 11.9 °C 1021.9 hPa SSE 2.9 km/h 13 km/h 64 % 0 mm
23:23 18.7 °C 11.7 °C 1021.9 hPa South 6.1 km/h 9.3 km/h 64 % 0 mm
23:28 18.6 °C 11.8 °C 1021.9 hPa SSE 9.7 km/h 13 km/h 65 % 0 mm
23:33 18.4 °C 11.7 °C 1021.9 hPa SSE 6 km/h 11.1 km/h 65 % 0 mm
23:38 18.3 °C 11.8 °C 1021.9 hPa North 2.3 km/h 7.4 km/h 66 % 0 mm
23:43 18.1 °C 11.7 °C 1021.9 hPa SSE 2.9 km/h 9.3 km/h 66 % 0 mm
23:48 18 °C 11.8 °C 1021.9 hPa North 7.6 km/h 8 km/h 67 % 0 mm
23:53 17.8 °C 11.6 °C 1021.9 hPa SSE 4.8 km/h 9.3 km/h 67 % 0 mm
23:58 17.8 °C 11.8 °C 1021.9 hPa North 3.2 km/h 7.4 km/h 68 % 0 mm
Ararat Weather
Compliments of Weather Underground - 2.5 mb
Click here to send mail.


ABOUT

Live weather data from Ararat, Victoria, Australia, 3377
Data uploaded from Cumulus every 5 minutes to Weather Underground.
This site then downloads the raw data for formatting and display.
Metric and imperial data can be displayed. Graphs and historical data available.
Includes Sun and Moon times and rain image live from BOM.

Check out Ararat Weather on Facebook, Twitter and Google +

Help support ongoing costs by checking out the ads





Follow @AraratWeather